createdAt,value
2018-04-14T00:00:12.767Z,13.90
2018-04-14T00:02:40.998Z,13.90
2018-04-14T00:05:09.438Z,13.80
2018-04-14T00:07:38.429Z,13.80
2018-04-14T00:10:06.662Z,13.80
2018-04-14T00:12:34.932Z,13.70
2018-04-14T00:15:03.559Z,13.70
2018-04-14T00:20:01.383Z,13.70
2018-04-14T00:22:30.382Z,13.80
2018-04-14T00:24:59.006Z,13.80
2018-04-14T00:27:27.531Z,13.80
2018-04-14T00:29:57.270Z,13.70
2018-04-14T00:32:26.270Z,13.70
2018-04-14T00:34:55.798Z,13.70
2018-04-14T00:37:24.032Z,13.60
2018-04-14T00:39:52.263Z,13.60
2018-04-14T00:42:21.851Z,13.60
2018-04-14T00:44:50.850Z,13.60
2018-04-14T00:47:20.218Z,13.60
2018-04-14T00:49:50.750Z,13.60
2018-04-14T00:52:18.982Z,13.50
2018-04-14T00:54:47.222Z,13.50
2018-04-14T00:57:16.755Z,13.60
2018-04-14T00:59:45.379Z,13.50
2018-04-14T01:02:14.750Z,13.50
2018-04-14T01:04:43.167Z,13.60
2018-04-14T01:07:12.163Z,13.60
2018-04-14T01:09:41.529Z,13.50
2018-04-14T01:12:09.913Z,13.50
2018-04-14T01:14:38.143Z,13.50
2018-04-14T01:17:06.379Z,13.50
2018-04-14T01:22:04.835Z,13.50
2018-04-14T01:24:33.834Z,13.50
2018-04-14T01:27:04.295Z,13.50
2018-04-14T01:29:34.034Z,13.50
2018-04-14T01:32:03.030Z,13.50
2018-04-14T01:34:33.193Z,13.50
2018-04-14T01:37:02.565Z,13.50
2018-04-14T01:39:30.802Z,13.50
2018-04-14T01:41:59.231Z,13.50
2018-04-14T01:46:56.931Z,13.50
2018-04-14T01:49:25.202Z,13.50
2018-04-14T01:51:53.434Z,13.50
2018-04-14T01:54:21.666Z,13.50
2018-04-14T01:56:50.210Z,13.50
2018-04-14T01:59:18.438Z,13.50
2018-04-14T02:01:46.679Z,13.50
2018-04-14T02:04:16.098Z,13.50
2018-04-14T02:06:45.840Z,13.40
2018-04-14T02:09:14.070Z,13.40
2018-04-14T02:14:11.954Z,13.50
2018-04-14T02:16:40.958Z,13.40
2018-04-14T02:19:09.238Z,13.50
2018-04-14T02:21:38.235Z,13.50
2018-04-14T02:24:06.471Z,13.50
2018-04-14T02:26:34.734Z,13.50
2018-04-14T02:29:03.205Z,13.50
2018-04-14T02:31:31.835Z,13.50
2018-04-14T02:34:01.160Z,13.50
2018-04-14T02:36:30.901Z,13.50
2018-04-14T02:38:59.149Z,13.50
2018-04-14T02:41:27.405Z,13.50
2018-04-14T02:43:55.636Z,13.40
2018-04-14T02:48:54.142Z,13.50
2018-04-14T02:53:51.835Z,13.40
2018-04-14T02:56:20.591Z,13.40
2018-04-14T02:58:48.822Z,13.40
2018-04-14T03:01:17.067Z,13.40
2018-04-14T03:03:45.323Z,13.30
2018-04-14T03:06:14.323Z,13.30
2018-04-14T03:08:42.559Z,13.30
2018-04-14T03:11:10.835Z,13.30
2018-04-14T03:13:39.075Z,13.30
2018-04-14T03:16:07.312Z,13.20
2018-04-14T03:18:37.383Z,13.20
2018-04-14T03:21:05.614Z,13.20
2018-04-14T03:23:33.847Z,13.10
2018-04-14T03:26:03.267Z,13.10
2018-04-14T03:28:32.267Z,13.10
2018-04-14T03:31:01.635Z,13.10
2018-04-14T03:33:31.382Z,13.10
2018-04-14T03:35:59.615Z,13.10
2018-04-14T03:38:27.855Z,13.10
2018-04-14T03:40:56.900Z,13.10
2018-04-14T03:43:25.136Z,13.10
2018-04-14T03:45:54.143Z,13.10
2018-04-14T03:48:22.919Z,13.00
2018-04-14T03:53:20.611Z,13.00
2018-04-14T03:55:48.978Z,13.00
2018-04-14T03:58:17.211Z,13.00
2018-04-14T04:00:45.447Z,13.00
2018-04-14T04:03:14.850Z,13.00
2018-04-14T04:05:43.085Z,13.00
2018-04-14T04:08:12.082Z,13.00
2018-04-14T04:10:40.506Z,12.90
2018-04-14T04:13:09.503Z,12.90
2018-04-14T04:15:37.753Z,13.00
2018-04-14T04:18:06.304Z,13.00
2018-04-14T04:20:51.313Z,13.00
2018-04-14T04:23:31.851Z,13.00
2018-04-14T04:26:00.989Z,13.00
2018-04-14T04:28:28.978Z,13.10
2018-04-14T04:30:57.002Z,13.10
2018-04-14T04:33:24.995Z,13.10
2018-04-14T04:35:52.992Z,13.00
2018-04-14T04:38:21.230Z,13.10
2018-04-14T04:40:49.223Z,13.10
2018-04-14T04:43:18.727Z,13.10
2018-04-14T04:45:48.086Z,13.20
2018-04-14T04:48:16.078Z,13.10
2018-04-14T04:50:45.207Z,13.20
2018-04-14T04:53:13.606Z,13.20
2018-04-14T04:55:41.599Z,13.20
2018-04-14T04:58:09.590Z,13.20
2018-04-14T05:03:07.639Z,13.20
2018-04-14T05:05:36.403Z,13.20
2018-04-14T05:08:04.594Z,13.20
2018-04-14T05:10:32.586Z,13.20
2018-04-14T05:13:00.588Z,13.20
2018-04-14T05:15:28.643Z,13.10
2018-04-14T05:17:56.636Z,13.20
2018-04-14T05:20:24.631Z,13.10
2018-04-14T05:22:52.663Z,13.10
2018-04-14T05:25:21.054Z,13.10
2018-04-14T05:30:19.266Z,13.10
2018-04-14T05:32:47.258Z,13.10
2018-04-14T05:35:15.271Z,13.10
2018-04-14T05:37:44.012Z,13.10
2018-04-14T05:40:12.002Z,13.10
2018-04-14T05:42:39.996Z,13.10
2018-04-14T05:45:09.554Z,13.20
2018-04-14T05:47:37.546Z,13.20
2018-04-14T05:50:05.543Z,13.30
2018-04-14T05:52:34.500Z,13.30
2018-04-14T05:55:02.503Z,13.30
2018-04-14T06:00:00.435Z,13.40
2018-04-14T06:02:28.430Z,13.40
2018-04-14T06:04:56.418Z,13.40
2018-04-14T06:09:53.708Z,13.60
2018-04-14T06:12:21.736Z,13.60
2018-04-14T06:14:49.757Z,13.70
2018-04-14T06:17:18.151Z,13.70
2018-04-14T06:19:47.067Z,13.70
2018-04-14T06:22:15.160Z,13.70
2018-04-14T06:24:44.235Z,13.80
2018-04-14T06:27:12.232Z,13.80
2018-04-14T06:29:40.267Z,13.90
2018-04-14T06:32:08.279Z,13.90
2018-04-14T06:34:37.043Z,14.00
2018-04-14T06:37:09.682Z,14.00
2018-04-14T06:39:38.095Z,14.00
2018-04-14T06:42:06.859Z,14.00
2018-04-14T06:44:35.102Z,14.00
2018-04-14T06:47:03.101Z,14.10
2018-04-14T06:49:31.087Z,14.10
2018-04-14T06:51:59.118Z,14.20
2018-04-14T06:54:27.508Z,14.20
2018-04-14T06:56:55.901Z,14.20
2018-04-14T06:59:25.455Z,14.30
2018-04-14T07:01:54.955Z,14.40
2018-04-14T07:04:22.963Z,14.50
2018-04-14T07:09:20.235Z,14.60
2018-04-14T07:11:48.231Z,14.60
2018-04-14T07:14:16.563Z,14.70
2018-04-14T07:16:44.558Z,14.80
2018-04-14T07:19:12.559Z,14.90
2018-04-14T07:21:40.598Z,14.90
2018-04-14T07:24:08.588Z,15.00
2018-04-14T07:26:36.591Z,15.00
2018-04-14T07:29:04.618Z,15.10
2018-04-14T07:31:32.691Z,15.20
2018-04-14T07:34:00.691Z,15.20
2018-04-14T07:38:58.554Z,15.20
2018-04-14T07:41:26.550Z,15.30
2018-04-14T07:46:23.839Z,15.40
2018-04-14T07:48:51.835Z,15.50
2018-04-14T07:56:19.545Z,15.60
2018-04-14T07:58:47.597Z,15.60
2018-04-14T08:01:16.356Z,15.60
2018-04-14T08:03:44.350Z,15.60
2018-04-14T08:06:15.568Z,15.70
2018-04-14T08:08:43.950Z,15.80
2018-04-14T08:11:11.943Z,15.90
2018-04-14T08:13:40.419Z,16.00
2018-04-14T08:16:08.415Z,16.20
2018-04-14T08:18:36.415Z,16.30
2018-04-14T08:21:04.767Z,16.50
2018-04-14T08:23:32.763Z,16.80
2018-04-14T08:26:00.754Z,17.00
2018-04-14T08:28:28.785Z,17.10
2018-04-14T08:30:57.544Z,17.40
2018-04-14T08:33:25.535Z,17.60
2018-04-14T08:35:53.758Z,17.70
2018-04-14T08:38:21.751Z,17.80
2018-04-14T08:40:49.747Z,17.80
2018-04-14T08:43:18.167Z,17.90
2018-04-14T08:45:46.555Z,17.90
2018-04-14T08:48:14.551Z,18.00
2018-04-14T08:50:42.578Z,18.00
2018-04-14T08:53:12.075Z,18.10
2018-04-14T08:55:40.066Z,18.20
2018-04-14T08:58:08.325Z,18.40
2018-04-14T09:00:36.315Z,18.50
2018-04-14T09:03:04.702Z,18.60
2018-04-14T09:08:02.723Z,18.50
2018-04-14T09:10:30.719Z,18.40
2018-04-14T09:12:58.963Z,18.40
2018-04-14T09:15:26.954Z,18.30
2018-04-14T09:17:55.191Z,18.20
2018-04-14T09:20:24.730Z,18.20
2018-04-14T09:22:53.354Z,18.10
2018-04-14T09:25:21.591Z,18.00
2018-04-14T09:27:50.355Z,18.00
2018-04-14T09:32:48.043Z,18.00
2018-04-14T09:35:16.471Z,17.90
2018-04-14T09:37:44.708Z,17.90
2018-04-14T09:40:12.947Z,17.90
2018-04-14T09:42:42.839Z,17.90
2018-04-14T09:47:40.526Z,18.20
2018-04-14T09:50:08.791Z,18.30
2018-04-14T09:52:37.028Z,18.40
2018-04-14T09:57:35.531Z,19.00
2018-04-14T10:00:03.763Z,19.50
2018-04-14T10:02:48.343Z,19.70
2018-04-14T10:05:17.345Z,19.90
2018-04-14T10:07:45.578Z,20.20
2018-04-14T10:10:14.251Z,20.50
2018-04-14T10:12:42.482Z,20.90
2018-04-14T10:15:10.732Z,20.90
2018-04-14T10:17:40.163Z,21.00
2018-04-14T10:20:08.397Z,21.00
2018-04-14T10:22:36.627Z,21.80
2018-04-14T10:25:04.896Z,22.60
2018-04-14T10:30:02.578Z,24.40
2018-04-14T10:32:35.615Z,24.80
2018-04-14T10:35:04.616Z,24.70
2018-04-14T10:40:03.361Z,24.40
2018-04-14T10:42:31.982Z,24.40
2018-04-14T10:45:07.112Z,24.60
2018-04-14T10:47:35.746Z,25.00
2018-04-14T10:50:03.984Z,25.20
2018-04-14T10:52:33.387Z,25.00
2018-04-14T10:55:02.387Z,24.80
2018-04-14T10:57:30.622Z,24.30
2018-04-14T10:59:59.758Z,23.70
2018-04-14T11:02:27.990Z,23.20
2018-04-14T11:04:56.230Z,22.80
2018-04-14T11:07:24.761Z,22.50
2018-04-14T11:09:54.323Z,22.60
2018-04-14T11:12:22.555Z,22.90
2018-04-14T11:14:51.003Z,23.30
2018-04-14T11:17:19.226Z,23.60
2018-04-14T11:22:20.562Z,24.00
2018-04-14T11:24:48.814Z,24.20
2018-04-14T11:27:17.323Z,24.40
2018-04-14T11:29:45.946Z,24.60
2018-04-14T11:32:14.974Z,24.80
2018-04-14T11:34:43.243Z,25.10
2018-04-14T11:37:12.275Z,25.30
2018-04-14T11:42:10.182Z,25.50
2018-04-14T11:47:07.874Z,25.50
2018-04-14T11:49:36.198Z,25.50
2018-04-14T11:52:04.435Z,25.40
2018-04-14T11:54:33.086Z,25.30
2018-04-14T11:57:02.138Z,25.30
2018-04-14T11:59:30.374Z,25.20
2018-04-14T12:04:29.242Z,25.40
2018-04-14T12:06:57.471Z,25.50
2018-04-14T12:09:26.839Z,25.60
2018-04-14T12:14:25.225Z,25.50
2018-04-14T12:16:53.449Z,25.60
2018-04-14T12:19:22.106Z,25.70
2018-04-14T12:21:50.338Z,25.80
2018-04-14T12:24:19.343Z,26.00
2018-04-14T12:26:49.786Z,26.10
2018-04-14T12:29:18.023Z,25.70
2018-04-14T12:31:46.254Z,25.30
2018-04-14T12:34:14.567Z,24.80
2018-04-14T12:39:12.271Z,24.20
2018-04-14T12:41:40.538Z,24.10
2018-04-14T12:46:38.234Z,24.20
2018-04-14T12:49:07.883Z,24.40
2018-04-14T12:51:36.511Z,24.60
2018-04-14T12:54:04.746Z,24.80
2018-04-14T12:56:33.034Z,24.90
2018-04-14T12:59:01.267Z,24.90
2018-04-14T13:01:29.503Z,24.90
2018-04-14T13:03:57.939Z,25.00
2018-04-14T13:06:26.179Z,25.00
2018-04-14T13:08:55.550Z,25.10
2018-04-14T13:11:23.867Z,24.90
2018-04-14T13:13:52.098Z,24.60
2018-04-14T13:16:21.843Z,24.30
2018-04-14T13:18:50.110Z,24.20
2018-04-14T13:21:19.119Z,24.10
2018-04-14T13:23:48.114Z,24.10
2018-04-14T13:26:17.119Z,24.00
2018-04-14T13:28:46.487Z,24.00
2018-04-14T13:31:15.517Z,24.10
2018-04-14T13:33:43.755Z,24.00
2018-04-14T13:36:12.751Z,23.90
2018-04-14T13:38:40.985Z,23.80
2018-04-14T13:41:10.762Z,23.80
2018-04-14T13:43:38.987Z,23.70
2018-04-14T13:46:07.218Z,23.70
2018-04-14T13:51:05.359Z,23.50
2018-04-14T13:53:34.359Z,23.40
2018-04-14T13:56:02.686Z,23.40
2018-04-14T13:58:32.680Z,23.30
2018-04-14T14:01:01.686Z,23.20
2018-04-14T14:03:30.362Z,23.10
2018-04-14T14:06:00.101Z,23.00
2018-04-14T14:10:58.966Z,22.90
2018-04-14T14:13:27.203Z,22.80
2018-04-14T14:15:57.170Z,22.80
2018-04-14T14:18:25.442Z,22.70
2018-04-14T14:20:54.815Z,22.70
2018-04-14T14:25:53.294Z,22.60
2018-04-14T14:28:21.928Z,22.50
2018-04-14T14:33:19.664Z,22.50
2018-04-14T14:38:17.427Z,22.40
2018-04-14T14:40:45.796Z,22.30
2018-04-14T14:43:14.031Z,22.20
2018-04-14T14:48:12.183Z,22.10
2018-04-14T14:53:10.271Z,22.00
2018-04-14T14:55:38.574Z,21.90
2018-04-14T14:58:06.811Z,21.80
2018-04-14T15:00:35.471Z,21.70
2018-04-14T15:03:05.286Z,21.60
2018-04-14T15:05:33.526Z,21.60
2018-04-14T15:08:01.759Z,21.50
2018-04-14T15:10:30.126Z,21.50
2018-04-14T15:15:28.979Z,21.40
2018-04-14T15:17:57.455Z,21.40
2018-04-14T15:20:27.196Z,21.30
2018-04-14T15:22:55.459Z,21.30
2018-04-14T15:25:23.949Z,21.20
2018-04-14T15:27:52.143Z,21.20
2018-04-14T15:30:20.378Z,21.10
2018-04-14T15:32:50.031Z,21.20
2018-04-14T15:35:19.105Z,21.30
2018-04-14T15:37:47.319Z,21.30
2018-04-14T15:40:17.433Z,21.40
2018-04-14T15:42:46.456Z,21.50
2018-04-14T15:45:14.694Z,21.50
2018-04-14T15:50:12.879Z,21.60
2018-04-14T15:52:41.149Z,21.50
2018-04-14T15:55:10.930Z,21.50
2018-04-14T15:57:39.154Z,21.50
2018-04-14T16:00:07.410Z,21.40
2018-04-14T16:02:36.607Z,21.30
2018-04-14T16:07:34.290Z,21.20
2018-04-14T16:10:06.254Z,21.10
2018-04-14T16:12:34.490Z,21.00
2018-04-14T16:17:32.302Z,20.90
2018-04-14T16:20:02.043Z,20.90
2018-04-14T16:22:30.279Z,20.90
2018-04-14T16:24:58.561Z,20.80
2018-04-14T16:27:26.789Z,20.80
2018-04-14T16:32:25.379Z,20.70
2018-04-14T16:34:53.700Z,20.70
2018-04-14T16:37:22.694Z,20.70
2018-04-14T16:39:52.118Z,20.70
2018-04-14T16:42:21.122Z,20.70
2018-04-14T16:47:19.230Z,20.60
2018-04-14T16:52:18.185Z,20.40
2018-04-14T16:54:46.770Z,20.40
2018-04-14T16:57:15.898Z,20.30
2018-04-14T16:59:44.212Z,20.30
2018-04-14T17:02:12.647Z,20.20
2018-04-14T17:04:40.893Z,20.10
2018-04-14T17:07:09.123Z,20.10
2018-04-14T17:09:38.183Z,20.00
2018-04-14T17:12:07.275Z,19.90
2018-04-14T17:14:36.674Z,19.90
2018-04-14T17:17:05.147Z,19.80
2018-04-14T17:19:34.887Z,19.70
2018-04-14T17:22:03.154Z,19.70
2018-04-14T17:27:01.170Z,19.60
2018-04-14T17:29:29.687Z,19.50
2018-04-14T17:31:58.661Z,19.40
2018-04-14T17:34:28.047Z,19.40
2018-04-14T17:36:56.314Z,19.30
2018-04-14T17:39:24.578Z,19.30
2018-04-14T17:44:22.340Z,19.20
2018-04-14T17:46:50.722Z,19.10
2018-04-14T17:51:49.207Z,19.00
2018-04-14T17:54:18.239Z,19.00
2018-04-14T17:56:46.471Z,18.90
2018-04-14T17:59:15.474Z,18.90
2018-04-14T18:01:45.443Z,18.80
2018-04-14T18:04:13.684Z,18.80
2018-04-14T18:06:42.692Z,18.80
2018-04-14T18:09:14.545Z,18.70
2018-04-14T18:11:43.166Z,18.70
2018-04-14T18:14:11.403Z,18.70
2018-04-14T18:19:10.222Z,18.60
2018-04-14T18:21:38.471Z,18.50
2018-04-14T18:24:07.515Z,18.50
2018-04-14T18:26:35.751Z,18.50
2018-04-14T18:29:03.979Z,18.40
2018-04-14T18:31:35.275Z,18.40
2018-04-14T18:34:03.903Z,18.30
2018-04-14T18:36:32.530Z,18.30
2018-04-14T18:39:02.304Z,18.20
2018-04-14T18:41:30.536Z,18.20
2018-04-14T18:43:58.772Z,18.20
2018-04-14T18:46:27.038Z,18.10
2018-04-14T18:48:55.275Z,18.10
2018-04-14T18:51:24.029Z,18.10
2018-04-14T18:58:51.010Z,18.00
2018-04-14T19:01:19.383Z,17.90
2018-04-14T19:03:48.383Z,17.90
2018-04-14T19:06:17.387Z,17.90
2018-04-14T19:08:45.658Z,17.90
2018-04-14T19:11:14.659Z,17.90
2018-04-14T19:13:44.403Z,17.90
2018-04-14T19:16:12.762Z,17.90
2018-04-14T19:18:40.990Z,17.80
2018-04-14T19:21:09.227Z,17.90
2018-04-14T19:23:38.262Z,17.80
2018-04-14T19:26:06.495Z,17.80
2018-04-14T19:28:34.734Z,17.80
2018-04-14T19:31:03.683Z,17.90
2018-04-14T19:33:33.421Z,17.80
2018-04-14T19:38:35.139Z,17.80
2018-04-14T19:43:37.629Z,17.70
2018-04-14T19:46:05.869Z,17.70
2018-04-14T19:48:34.128Z,17.70
2018-04-14T19:51:02.358Z,17.70
2018-04-14T19:53:30.591Z,17.70
2018-04-14T19:56:00.009Z,17.60
2018-04-14T19:58:28.619Z,17.60
2018-04-14T20:00:57.986Z,17.50
2018-04-14T20:03:26.214Z,17.60
2018-04-14T20:08:24.230Z,17.50
2018-04-14T20:10:52.532Z,17.40
2018-04-14T20:15:50.843Z,17.40
2018-04-14T20:18:19.078Z,17.30
2018-04-14T20:20:47.560Z,17.40
2018-04-14T20:25:45.308Z,17.30
2018-04-14T20:28:13.843Z,17.30
2018-04-14T20:33:12.398Z,17.20
2018-04-14T20:38:17.799Z,17.20
2018-04-14T20:40:46.042Z,17.20
2018-04-14T20:43:15.906Z,17.20
2018-04-14T20:45:44.143Z,17.20
2018-04-14T20:48:12.378Z,17.20
2018-04-14T20:50:42.743Z,17.20
2018-04-14T20:53:10.975Z,17.20
2018-04-14T20:58:09.118Z,17.20
2018-04-14T21:00:37.351Z,17.20
2018-04-14T21:03:06.791Z,17.10
2018-04-14T21:05:36.031Z,17.10
2018-04-14T21:08:05.027Z,17.10
2018-04-14T21:10:34.055Z,17.10
2018-04-14T21:13:04.836Z,17.10
2018-04-14T21:15:33.466Z,17.00
2018-04-14T21:18:01.711Z,17.00
2018-04-14T21:20:30.260Z,17.00
2018-04-14T21:25:27.955Z,17.00
2018-04-14T21:27:56.345Z,17.00
2018-04-14T21:30:24.554Z,16.90
2018-04-14T21:32:52.788Z,16.90
2018-04-14T21:35:22.311Z,16.90
2018-04-14T21:37:50.546Z,16.90
2018-04-14T21:40:18.778Z,16.80
2018-04-14T21:45:17.635Z,16.90
2018-04-14T21:47:47.438Z,16.90
2018-04-14T21:50:15.702Z,16.90
2018-04-14T21:52:45.075Z,16.80
2018-04-14T21:57:43.687Z,16.80
2018-04-14T22:00:13.427Z,16.80
2018-04-14T22:02:41.663Z,16.80
2018-04-14T22:05:10.172Z,16.70
2018-04-14T22:07:38.418Z,16.70
2018-04-14T22:10:07.781Z,16.80
2018-04-14T22:12:36.503Z,16.80
2018-04-14T22:15:04.715Z,16.80
2018-04-14T22:17:34.194Z,16.70
2018-04-14T22:20:06.308Z,16.70
2018-04-14T22:22:34.582Z,16.70
2018-04-14T22:25:02.838Z,16.60
2018-04-14T22:27:35.044Z,16.60
2018-04-14T22:30:03.275Z,16.70
2018-04-14T22:32:31.511Z,16.60
2018-04-14T22:35:00.165Z,16.60
2018-04-14T22:37:29.160Z,16.60
2018-04-14T22:39:57.431Z,16.60
2018-04-14T22:42:26.271Z,16.60
2018-04-14T22:44:55.263Z,16.60
2018-04-14T22:47:23.890Z,16.60
2018-04-14T22:49:52.374Z,16.60
2018-04-14T22:54:50.124Z,16.60
2018-04-14T22:57:18.430Z,16.60
2018-04-14T22:59:46.662Z,16.60
2018-04-14T23:02:14.886Z,16.50
2018-04-14T23:04:43.622Z,16.60
2018-04-14T23:07:12.250Z,16.50
2018-04-14T23:09:40.486Z,16.60
2018-04-14T23:12:08.757Z,16.50
2018-04-14T23:14:37.387Z,16.40
2018-04-14T23:17:05.623Z,16.40
2018-04-14T23:19:35.387Z,16.30
2018-04-14T23:22:04.017Z,16.30
2018-04-14T23:24:33.754Z,16.30
2018-04-14T23:27:02.190Z,16.30
2018-04-14T23:29:31.212Z,16.20
2018-04-14T23:31:59.443Z,16.20
2018-04-14T23:34:28.679Z,16.10
2018-04-14T23:36:57.754Z,16.10
2018-04-14T23:39:25.987Z,16.00
2018-04-14T23:41:55.760Z,16.00
2018-04-14T23:44:24.023Z,15.90
2018-04-14T23:46:53.022Z,15.90
2018-04-14T23:49:21.666Z,15.80
2018-04-14T23:54:19.383Z,15.80
2018-04-14T23:56:51.278Z,15.80
2018-04-14T23:59:20.651Z,15.80
